sensor_id;sensor_type;location;lat;lon;timestamp;P1;durP1;ratioP1;P2;durP2;ratioP2
69588;SDS011;56792;50.644;17.984;2024-03-06T00:02:19;45.10;;;22.00;;
69588;SDS011;56792;50.644;17.984;2024-03-06T00:04:50;41.40;;;20.00;;
69588;SDS011;56792;50.644;17.984;2024-03-06T00:07:22;38.80;;;19.40;;
69588;SDS011;56792;50.644;17.984;2024-03-06T00:09:54;41.30;;;20.70;;
69588;SDS011;56792;50.644;17.984;2024-03-06T00:12:26;42.70;;;21.70;;
69588;SDS011;56792;50.644;17.984;2024-03-06T00:14:58;46.10;;;21.20;;
69588;SDS011;56792;50.644;17.984;2024-03-06T00:17:30;40.00;;;20.10;;
69588;SDS011;56792;50.644;17.984;2024-03-06T00:20:02;37.00;;;19.00;;
69588;SDS011;56792;50.644;17.984;2024-03-06T00:22:34;40.30;;;19.40;;
69588;SDS011;56792;50.644;17.984;2024-03-06T00:25:07;39.90;;;20.60;;
69588;SDS011;56792;50.644;17.984;2024-03-06T00:27:39;36.90;;;20.10;;
69588;SDS011;56792;50.644;17.984;2024-03-06T00:30:11;33.90;;;18.10;;
69588;SDS011;56792;50.644;17.984;2024-03-06T00:32:43;47.40;;;23.20;;
69588;SDS011;56792;50.644;17.984;2024-03-06T00:35:14;44.30;;;20.30;;
69588;SDS011;56792;50.644;17.984;2024-03-06T00:37:47;37.70;;;19.90;;
69588;SDS011;56792;50.644;17.984;2024-03-06T00:40:20;41.60;;;19.90;;
69588;SDS011;56792;50.644;17.984;2024-03-06T00:42:51;36.60;;;19.20;;
69588;SDS011;56792;50.644;17.984;2024-03-06T00:45:23;37.80;;;18.90;;
69588;SDS011;56792;50.644;17.984;2024-03-06T00:47:55;40.80;;;21.60;;
69588;SDS011;56792;50.644;17.984;2024-03-06T00:50:26;41.50;;;20.40;;
69588;SDS011;56792;50.644;17.984;2024-03-06T00:53:00;39.80;;;20.80;;
69588;SDS011;56792;50.644;17.984;2024-03-06T00:55:32;37.80;;;19.60;;
69588;SDS011;56792;50.644;17.984;2024-03-06T00:58:04;44.90;;;22.10;;
69588;SDS011;56792;50.644;17.984;2024-03-06T01:00:36;41.30;;;21.40;;
69588;SDS011;56792;50.644;17.984;2024-03-06T01:03:08;39.50;;;19.30;;
69588;SDS011;56792;50.644;17.984;2024-03-06T01:05:39;43.30;;;21.60;;
69588;SDS011;56792;50.644;17.984;2024-03-06T01:08:11;38.60;;;19.50;;
69588;SDS011;56792;50.644;17.984;2024-03-06T01:10:44;36.10;;;18.10;;
69588;SDS011;56792;50.644;17.984;2024-03-06T01:13:15;47.50;;;25.70;;
69588;SDS011;56792;50.644;17.984;2024-03-06T01:15:47;43.40;;;23.80;;
69588;SDS011;56792;50.644;17.984;2024-03-06T01:18:19;38.60;;;20.20;;
69588;SDS011;56792;50.644;17.984;2024-03-06T01:20:50;41.20;;;19.50;;
69588;SDS011;56792;50.644;17.984;2024-03-06T01:23:22;39.20;;;20.60;;
69588;SDS011;56792;50.644;17.984;2024-03-06T01:25:53;41.90;;;21.40;;
69588;SDS011;56792;50.644;17.984;2024-03-06T01:28:25;41.10;;;20.00;;
69588;SDS011;56792;50.644;17.984;2024-03-06T01:30:56;43.30;;;21.60;;
69588;SDS011;56792;50.644;17.984;2024-03-06T01:33:28;39.40;;;22.00;;
69588;SDS011;56792;50.644;17.984;2024-03-06T01:35:59;39.50;;;20.30;;
69588;SDS011;56792;50.644;17.984;2024-03-06T01:38:31;37.10;;;17.90;;
69588;SDS011;56792;50.644;17.984;2024-03-06T01:41:03;39.30;;;19.30;;
69588;SDS011;56792;50.644;17.984;2024-03-06T01:43:39;40.40;;;20.70;;
69588;SDS011;56792;50.644;17.984;2024-03-06T01:46:11;43.20;;;19.60;;
69588;SDS011;56792;50.644;17.984;2024-03-06T01:48:42;33.80;;;19.00;;
69588;SDS011;56792;50.644;17.984;2024-03-06T01:51:14;36.10;;;19.00;;
69588;SDS011;56792;50.644;17.984;2024-03-06T01:53:46;37.70;;;19.20;;
69588;SDS011;56792;50.644;17.984;2024-03-06T01:56:18;37.40;;;20.20;;
69588;SDS011;56792;50.644;17.984;2024-03-06T01:58:50;37.00;;;19.00;;
69588;SDS011;56792;50.644;17.984;2024-03-06T02:01:23;36.40;;;19.40;;
69588;SDS011;56792;50.644;17.984;2024-03-06T02:03:55;42.10;;;20.10;;
69588;SDS011;56792;50.644;17.984;2024-03-06T02:06:27;35.90;;;18.90;;
69588;SDS011;56792;50.644;17.984;2024-03-06T02:08:59;36.30;;;18.10;;
69588;SDS011;56792;50.644;17.984;2024-03-06T02:11:33;36.80;;;19.30;;
69588;SDS011;56792;50.644;17.984;2024-03-06T02:14:05;33.60;;;18.10;;
69588;SDS011;56792;50.644;17.984;2024-03-06T02:16:38;34.70;;;18.40;;
69588;SDS011;56792;50.644;17.984;2024-03-06T02:19:09;35.20;;;18.50;;
69588;SDS011;56792;50.644;17.984;2024-03-06T02:21:41;40.40;;;19.20;;
69588;SDS011;56792;50.644;17.984;2024-03-06T02:24:12;35.60;;;18.70;;
69588;SDS011;56792;50.644;17.984;2024-03-06T02:26:44;36.20;;;16.40;;
69588;SDS011;56792;50.644;17.984;2024-03-06T02:29:16;36.80;;;18.90;;
69588;SDS011;56792;50.644;17.984;2024-03-06T02:31:47;40.30;;;18.90;;
69588;SDS011;56792;50.644;17.984;2024-03-06T02:34:19;40.00;;;20.60;;
69588;SDS011;56792;50.644;17.984;2024-03-06T02:36:53;35.50;;;18.70;;
69588;SDS011;56792;50.644;17.984;2024-03-06T02:39:25;39.30;;;19.20;;
69588;SDS011;56792;50.644;17.984;2024-03-06T02:41:56;32.00;;;17.70;;
69588;SDS011;56792;50.644;17.984;2024-03-06T02:44:28;35.40;;;18.50;;
69588;SDS011;56792;50.644;17.984;2024-03-06T02:46:59;35.70;;;18.50;;
69588;SDS011;56792;50.644;17.984;2024-03-06T02:49:31;34.50;;;18.90;;
69588;SDS011;56792;50.644;17.984;2024-03-06T02:52:02;37.70;;;18.80;;
69588;SDS011;56792;50.644;17.984;2024-03-06T02:54:34;41.00;;;21.20;;
69588;SDS011;56792;50.644;17.984;2024-03-06T02:57:06;39.10;;;21.10;;
69588;SDS011;56792;50.644;17.984;2024-03-06T02:59:39;36.70;;;19.30;;
69588;SDS011;56792;50.644;17.984;2024-03-06T03:02:10;43.90;;;23.10;;
69588;SDS011;56792;50.644;17.984;2024-03-06T03:04:42;46.60;;;26.50;;
69588;SDS011;56792;50.644;17.984;2024-03-06T03:07:14;49.70;;;25.80;;
69588;SDS011;56792;50.644;17.984;2024-03-06T03:09:45;44.90;;;22.70;;
69588;SDS011;56792;50.644;17.984;2024-03-06T03:12:17;36.70;;;19.70;;
69588;SDS011;56792;50.644;17.984;2024-03-06T03:14:48;32.70;;;18.50;;
69588;SDS011;56792;50.644;17.984;2024-03-06T03:17:20;39.50;;;19.70;;
69588;SDS011;56792;50.644;17.984;2024-03-06T03:19:51;38.30;;;20.70;;
69588;SDS011;56792;50.644;17.984;2024-03-06T03:22:23;34.70;;;18.50;;
69588;SDS011;56792;50.644;17.984;2024-03-06T03:24:55;37.70;;;17.80;;
69588;SDS011;56792;50.644;17.984;2024-03-06T03:27:26;36.40;;;18.40;;
69588;SDS011;56792;50.644;17.984;2024-03-06T03:29:58;36.00;;;18.60;;
69588;SDS011;56792;50.644;17.984;2024-03-06T03:32:29;34.50;;;17.80;;
69588;SDS011;56792;50.644;17.984;2024-03-06T03:35:00;35.70;;;18.00;;
69588;SDS011;56792;50.644;17.984;2024-03-06T03:37:32;32.70;;;17.90;;
69588;SDS011;56792;50.644;17.984;2024-03-06T03:40:05;34.10;;;18.10;;
69588;SDS011;56792;50.644;17.984;2024-03-06T03:42:39;41.20;;;20.40;;
69588;SDS011;56792;50.644;17.984;2024-03-06T03:45:13;36.90;;;20.00;;
69588;SDS011;56792;50.644;17.984;2024-03-06T03:47:45;34.10;;;18.30;;
69588;SDS011;56792;50.644;17.984;2024-03-06T03:50:16;34.50;;;18.60;;
69588;SDS011;56792;50.644;17.984;2024-03-06T03:52:48;37.90;;;19.00;;
69588;SDS011;56792;50.644;17.984;2024-03-06T03:55:19;41.40;;;20.70;;
69588;SDS011;56792;50.644;17.984;2024-03-06T03:57:51;36.70;;;19.50;;
69588;SDS011;56792;50.644;17.984;2024-03-06T04:00:22;36.00;;;18.30;;
69588;SDS011;56792;50.644;17.984;2024-03-06T04:02:54;43.90;;;21.10;;
69588;SDS011;56792;50.644;17.984;2024-03-06T04:05:26;36.30;;;19.30;;
69588;SDS011;56792;50.644;17.984;2024-03-06T04:07:58;36.90;;;19.30;;
69588;SDS011;56792;50.644;17.984;2024-03-06T04:10:29;35.90;;;19.70;;
69588;SDS011;56792;50.644;17.984;2024-03-06T04:13:01;35.90;;;18.50;;
69588;SDS011;56792;50.644;17.984;2024-03-06T04:15:33;33.10;;;17.70;;
69588;SDS011;56792;50.644;17.984;2024-03-06T04:18:04;35.10;;;17.00;;
69588;SDS011;56792;50.644;17.984;2024-03-06T04:20:36;38.80;;;17.90;;
69588;SDS011;56792;50.644;17.984;2024-03-06T04:23:09;32.40;;;17.60;;
69588;SDS011;56792;50.644;17.984;2024-03-06T04:25:40;37.20;;;19.90;;
69588;SDS011;56792;50.644;17.984;2024-03-06T04:28:13;33.70;;;18.90;;
69588;SDS011;56792;50.644;17.984;2024-03-06T04:30:44;36.70;;;19.20;;
69588;SDS011;56792;50.644;17.984;2024-03-06T04:33:16;35.20;;;18.20;;
69588;SDS011;56792;50.644;17.984;2024-03-06T04:35:47;40.30;;;19.40;;
69588;SDS011;56792;50.644;17.984;2024-03-06T04:38:19;37.30;;;17.90;;
69588;SDS011;56792;50.644;17.984;2024-03-06T04:40:50;33.40;;;17.40;;
69588;SDS011;56792;50.644;17.984;2024-03-06T04:43:22;36.10;;;18.20;;
69588;SDS011;56792;50.644;17.984;2024-03-06T04:45:53;34.40;;;18.50;;
69588;SDS011;56792;50.644;17.984;2024-03-06T04:48:25;38.70;;;19.50;;
69588;SDS011;56792;50.644;17.984;2024-03-06T04:50:56;38.70;;;18.10;;
69588;SDS011;56792;50.644;17.984;2024-03-06T04:53:28;30.60;;;16.60;;
69588;SDS011;56792;50.644;17.984;2024-03-06T04:55:59;32.50;;;16.70;;
69588;SDS011;56792;50.644;17.984;2024-03-06T04:58:31;34.20;;;16.30;;
69588;SDS011;56792;50.644;17.984;2024-03-06T05:01:03;36.40;;;17.60;;
69588;SDS011;56792;50.644;17.984;2024-03-06T05:03:35;54.00;;;21.70;;
69588;SDS011;56792;50.644;17.984;2024-03-06T05:06:07;66.10;;;26.70;;
69588;SDS011;56792;50.644;17.984;2024-03-06T05:08:39;60.40;;;26.50;;
69588;SDS011;56792;50.644;17.984;2024-03-06T05:11:11;52.10;;;21.80;;
69588;SDS011;56792;50.644;17.984;2024-03-06T05:13:42;52.40;;;23.00;;
69588;SDS011;56792;50.644;17.984;2024-03-06T05:16:13;53.20;;;24.20;;
69588;SDS011;56792;50.644;17.984;2024-03-06T05:18:46;59.80;;;24.50;;
69588;SDS011;56792;50.644;17.984;2024-03-06T05:21:18;51.00;;;24.00;;
69588;SDS011;56792;50.644;17.984;2024-03-06T05:23:50;37.70;;;19.90;;
69588;SDS011;56792;50.644;17.984;2024-03-06T05:26:22;43.20;;;21.40;;
69588;SDS011;56792;50.644;17.984;2024-03-06T05:28:54;38.90;;;20.80;;
69588;SDS011;56792;50.644;17.984;2024-03-06T05:31:25;37.40;;;21.40;;
69588;SDS011;56792;50.644;17.984;2024-03-06T05:33:57;39.40;;;21.10;;
69588;SDS011;56792;50.644;17.984;2024-03-06T05:36:29;35.20;;;19.00;;
69588;SDS011;56792;50.644;17.984;2024-03-06T05:39:01;36.90;;;20.40;;
69588;SDS011;56792;50.644;17.984;2024-03-06T05:41:35;41.40;;;21.20;;
69588;SDS011;56792;50.644;17.984;2024-03-06T05:44:06;46.60;;;24.40;;
69588;SDS011;56792;50.644;17.984;2024-03-06T05:46:38;39.00;;;22.20;;
69588;SDS011;56792;50.644;17.984;2024-03-06T05:49:10;42.70;;;22.40;;
69588;SDS011;56792;50.644;17.984;2024-03-06T05:51:42;43.30;;;23.50;;
69588;SDS011;56792;50.644;17.984;2024-03-06T05:54:14;46.80;;;23.40;;
69588;SDS011;56792;50.644;17.984;2024-03-06T05:56:47;41.70;;;22.70;;
69588;SDS011;56792;50.644;17.984;2024-03-06T05:59:19;38.90;;;21.40;;
69588;SDS011;56792;50.644;17.984;2024-03-06T06:01:52;35.00;;;19.60;;
69588;SDS011;56792;50.644;17.984;2024-03-06T06:04:24;39.00;;;20.30;;
69588;SDS011;56792;50.644;17.984;2024-03-06T06:06:55;39.90;;;20.10;;
69588;SDS011;56792;50.644;17.984;2024-03-06T06:09:27;36.70;;;21.30;;
69588;SDS011;56792;50.644;17.984;2024-03-06T06:11:58;40.50;;;21.40;;
69588;SDS011;56792;50.644;17.984;2024-03-06T06:14:30;36.20;;;21.20;;
69588;SDS011;56792;50.644;17.984;2024-03-06T06:17:01;36.70;;;21.80;;
69588;SDS011;56792;50.644;17.984;2024-03-06T06:19:33;36.50;;;20.50;;
69588;SDS011;56792;50.644;17.984;2024-03-06T06:22:04;37.20;;;20.30;;
69588;SDS011;56792;50.644;17.984;2024-03-06T06:24:36;38.30;;;21.60;;
69588;SDS011;56792;50.644;17.984;2024-03-06T06:27:09;33.90;;;19.90;;
69588;SDS011;56792;50.644;17.984;2024-03-06T06:29:40;37.10;;;20.70;;
69588;SDS011;56792;50.644;17.984;2024-03-06T06:32:12;36.60;;;21.50;;
69588;SDS011;56792;50.644;17.984;2024-03-06T06:34:43;37.90;;;22.60;;
69588;SDS011;56792;50.644;17.984;2024-03-06T06:37:15;38.30;;;20.60;;
69588;SDS011;56792;50.644;17.984;2024-03-06T06:39:48;40.00;;;20.90;;
69588;SDS011;56792;50.644;17.984;2024-03-06T06:42:19;44.40;;;22.80;;
69588;SDS011;56792;50.644;17.984;2024-03-06T06:44:52;46.50;;;23.40;;
69588;SDS011;56792;50.644;17.984;2024-03-06T06:47:24;43.30;;;23.80;;
69588;SDS011;56792;50.644;17.984;2024-03-06T06:49:55;41.30;;;22.00;;
69588;SDS011;56792;50.644;17.984;2024-03-06T06:52:27;44.10;;;24.20;;
69588;SDS011;56792;50.644;17.984;2024-03-06T06:54:59;43.30;;;22.80;;
69588;SDS011;56792;50.644;17.984;2024-03-06T06:57:32;41.40;;;23.00;;
69588;SDS011;56792;50.644;17.984;2024-03-06T07:00:05;44.30;;;23.50;;
69588;SDS011;56792;50.644;17.984;2024-03-06T07:02:40;49.10;;;23.30;;
69588;SDS011;56792;50.644;17.984;2024-03-06T07:05:12;54.20;;;27.10;;
69588;SDS011;56792;50.644;17.984;2024-03-06T07:07:43;53.90;;;28.10;;
69588;SDS011;56792;50.644;17.984;2024-03-06T07:10:15;49.90;;;25.90;;
69588;SDS011;56792;50.644;17.984;2024-03-06T07:12:47;45.70;;;23.80;;
69588;SDS011;56792;50.644;17.984;2024-03-06T07:15:19;39.20;;;21.20;;
69588;SDS011;56792;50.644;17.984;2024-03-06T07:17:50;49.00;;;23.30;;
69588;SDS011;56792;50.644;17.984;2024-03-06T07:20:22;40.90;;;21.80;;
69588;SDS011;56792;50.644;17.984;2024-03-06T07:22:54;40.80;;;20.80;;
69588;SDS011;56792;50.644;17.984;2024-03-06T07:25:26;35.80;;;19.90;;
69588;SDS011;56792;50.644;17.984;2024-03-06T07:27:57;38.10;;;18.30;;
69588;SDS011;56792;50.644;17.984;2024-03-06T07:30:29;37.30;;;19.70;;
69588;SDS011;56792;50.644;17.984;2024-03-06T07:33:00;36.40;;;19.30;;
69588;SDS011;56792;50.644;17.984;2024-03-06T07:35:33;31.70;;;16.70;;
69588;SDS011;56792;50.644;17.984;2024-03-06T07:38:05;32.00;;;17.70;;
69588;SDS011;56792;50.644;17.984;2024-03-06T07:40:37;30.40;;;16.70;;
69588;SDS011;56792;50.644;17.984;2024-03-06T07:43:08;27.90;;;16.00;;
69588;SDS011;56792;50.644;17.984;2024-03-06T07:45:40;30.30;;;16.10;;
69588;SDS011;56792;50.644;17.984;2024-03-06T07:48:12;29.70;;;16.00;;
69588;SDS011;56792;50.644;17.984;2024-03-06T07:50:44;31.10;;;17.40;;
69588;SDS011;56792;50.644;17.984;2024-03-06T07:53:15;28.20;;;16.50;;
69588;SDS011;56792;50.644;17.984;2024-03-06T07:55:47;33.40;;;17.40;;
69588;SDS011;56792;50.644;17.984;2024-03-06T07:58:18;34.10;;;18.00;;
69588;SDS011;56792;50.644;17.984;2024-03-06T08:00:52;34.00;;;17.30;;
69588;SDS011;56792;50.644;17.984;2024-03-06T08:03:24;31.20;;;17.10;;
69588;SDS011;56792;50.644;17.984;2024-03-06T08:05:56;30.70;;;17.00;;
69588;SDS011;56792;50.644;17.984;2024-03-06T08:08:27;30.10;;;15.70;;
69588;SDS011;56792;50.644;17.984;2024-03-06T08:10:59;30.10;;;16.50;;
69588;SDS011;56792;50.644;17.984;2024-03-06T08:13:30;29.90;;;17.70;;
69588;SDS011;56792;50.644;17.984;2024-03-06T08:16:03;34.00;;;18.50;;
69588;SDS011;56792;50.644;17.984;2024-03-06T08:18:36;33.30;;;17.90;;
69588;SDS011;56792;50.644;17.984;2024-03-06T08:21:07;34.40;;;19.10;;
69588;SDS011;56792;50.644;17.984;2024-03-06T08:23:39;38.30;;;21.30;;
69588;SDS011;56792;50.644;17.984;2024-03-06T08:26:11;33.00;;;18.60;;
69588;SDS011;56792;50.644;17.984;2024-03-06T08:28:43;34.30;;;19.00;;
69588;SDS011;56792;50.644;17.984;2024-03-06T08:31:14;32.20;;;17.00;;
69588;SDS011;56792;50.644;17.984;2024-03-06T08:33:46;35.40;;;18.70;;
69588;SDS011;56792;50.644;17.984;2024-03-06T08:36:18;36.10;;;19.60;;
69588;SDS011;56792;50.644;17.984;2024-03-06T08:38:50;35.30;;;18.70;;
69588;SDS011;56792;50.644;17.984;2024-03-06T08:41:21;37.20;;;21.20;;
69588;SDS011;56792;50.644;17.984;2024-03-06T08:43:53;32.80;;;18.70;;
69588;SDS011;56792;50.644;17.984;2024-03-06T08:46:25;33.60;;;18.40;;
69588;SDS011;56792;50.644;17.984;2024-03-06T08:48:56;33.10;;;18.40;;
69588;SDS011;56792;50.644;17.984;2024-03-06T08:51:28;34.00;;;18.70;;
69588;SDS011;56792;50.644;17.984;2024-03-06T08:53:59;29.40;;;17.50;;
69588;SDS011;56792;50.644;17.984;2024-03-06T08:56:31;30.10;;;16.30;;
69588;SDS011;56792;50.644;17.984;2024-03-06T08:59:03;34.90;;;17.70;;
69588;SDS011;56792;50.644;17.984;2024-03-06T09:01:35;25.10;;;15.80;;
69588;SDS011;56792;50.644;17.984;2024-03-06T09:04:06;30.50;;;17.40;;
69588;SDS011;56792;50.644;17.984;2024-03-06T09:06:38;29.30;;;16.60;;
69588;SDS011;56792;50.644;17.984;2024-03-06T09:09:09;31.90;;;16.50;;
69588;SDS011;56792;50.644;17.984;2024-03-06T09:11:43;28.00;;;15.70;;
69588;SDS011;56792;50.644;17.984;2024-03-06T09:14:14;28.50;;;16.50;;
69588;SDS011;56792;50.644;17.984;2024-03-06T09:16:46;30.10;;;16.70;;
69588;SDS011;56792;50.644;17.984;2024-03-06T09:19:17;29.00;;;17.10;;
69588;SDS011;56792;50.644;17.984;2024-03-06T09:21:49;32.60;;;17.60;;
69588;SDS011;56792;50.644;17.984;2024-03-06T09:24:21;30.40;;;16.60;;
69588;SDS011;56792;50.644;17.984;2024-03-06T09:26:53;29.00;;;17.10;;
69588;SDS011;56792;50.644;17.984;2024-03-06T09:29:25;27.40;;;15.10;;
69588;SDS011;56792;50.644;17.984;2024-03-06T09:31:57;31.00;;;16.20;;
69588;SDS011;56792;50.644;17.984;2024-03-06T09:34:29;26.00;;;14.00;;
69588;SDS011;56792;50.644;17.984;2024-03-06T09:37:00;26.40;;;14.80;;
69588;SDS011;56792;50.644;17.984;2024-03-06T09:39:32;24.60;;;14.50;;
69588;SDS011;56792;50.644;17.984;2024-03-06T09:42:05;25.20;;;15.00;;
69588;SDS011;56792;50.644;17.984;2024-03-06T09:44:37;30.30;;;16.40;;
69588;SDS011;56792;50.644;17.984;2024-03-06T09:47:08;27.80;;;15.30;;
69588;SDS011;56792;50.644;17.984;2024-03-06T09:49:43;26.10;;;14.70;;
69588;SDS011;56792;50.644;17.984;2024-03-06T09:52:15;22.60;;;14.30;;
69588;SDS011;56792;50.644;17.984;2024-03-06T09:54:46;24.70;;;15.00;;
69588;SDS011;56792;50.644;17.984;2024-03-06T09:57:20;26.70;;;14.60;;
69588;SDS011;56792;50.644;17.984;2024-03-06T09:59:51;25.20;;;14.20;;
69588;SDS011;56792;50.644;17.984;2024-03-06T10:02:30;22.00;;;13.00;;
69588;SDS011;56792;50.644;17.984;2024-03-06T10:05:07;23.00;;;10.60;;
69588;SDS011;56792;50.644;17.984;2024-03-06T10:07:52;23.00;;;12.80;;
69588;SDS011;56792;50.644;17.984;2024-03-06T10:10:24;17.80;;;12.40;;
69588;SDS011;56792;50.644;17.984;2024-03-06T10:12:56;19.40;;;11.30;;
69588;SDS011;56792;50.644;17.984;2024-03-06T10:15:28;20.30;;;11.80;;
69588;SDS011;56792;50.644;17.984;2024-03-06T10:18:16;21.30;;;11.50;;
69588;SDS011;56792;50.644;17.984;2024-03-06T10:20:48;19.40;;;11.90;;
69588;SDS011;56792;50.644;17.984;2024-03-06T10:23:21;19.90;;;11.90;;
69588;SDS011;56792;50.644;17.984;2024-03-06T10:25:53;21.10;;;12.20;;
69588;SDS011;56792;50.644;17.984;2024-03-06T10:28:25;19.40;;;12.50;;
69588;SDS011;56792;50.644;17.984;2024-03-06T10:31:04;17.90;;;10.50;;
69588;SDS011;56792;50.644;17.984;2024-03-06T10:33:37;17.60;;;10.40;;
69588;SDS011;56792;50.644;17.984;2024-03-06T10:36:11;16.40;;;9.90;;
69588;SDS011;56792;50.644;17.984;2024-03-06T10:38:44;16.10;;;10.60;;
69588;SDS011;56792;50.644;17.984;2024-03-06T10:41:22;15.60;;;10.20;;
69588;SDS011;56792;50.644;17.984;2024-03-06T10:43:56;17.00;;;10.50;;
69588;SDS011;56792;50.644;17.984;2024-03-06T10:46:29;19.10;;;12.40;;
69588;SDS011;56792;50.644;17.984;2024-03-06T10:49:04;15.30;;;10.20;;
69588;SDS011;56792;50.644;17.984;2024-03-06T10:51:36;17.60;;;10.70;;
69588;SDS011;56792;50.644;17.984;2024-03-06T10:54:10;18.50;;;11.30;;
69588;SDS011;56792;50.644;17.984;2024-03-06T10:56:43;17.30;;;10.90;;
69588;SDS011;56792;50.644;17.984;2024-03-06T10:59:15;17.80;;;11.00;;
69588;SDS011;56792;50.644;17.984;2024-03-06T11:01:50;18.50;;;11.30;;
69588;SDS011;56792;50.644;17.984;2024-03-06T11:04:23;15.60;;;9.30;;
69588;SDS011;56792;50.644;17.984;2024-03-06T11:06:57;20.40;;;12.10;;
69588;SDS011;56792;50.644;17.984;2024-03-06T11:09:29;15.40;;;9.80;;
69588;SDS011;56792;50.644;17.984;2024-03-06T11:12:05;17.80;;;11.00;;
69588;SDS011;56792;50.644;17.984;2024-03-06T11:14:39;18.20;;;11.60;;
69588;SDS011;56792;50.644;17.984;2024-03-06T11:17:11;20.60;;;11.60;;
69588;SDS011;56792;50.644;17.984;2024-03-06T11:20:12;18.10;;;10.60;;
69588;SDS011;56792;50.644;17.984;2024-03-06T11:23:03;19.30;;;11.30;;
69588;SDS011;56792;50.644;17.984;2024-03-06T11:26:05;15.60;;;9.70;;
69588;SDS011;56792;50.644;17.984;2024-03-06T11:28:40;22.00;;;11.50;;
69588;SDS011;56792;50.644;17.984;2024-03-06T11:31:20;20.70;;;12.20;;
69588;SDS011;56792;50.644;17.984;2024-03-06T11:33:54;16.10;;;9.70;;
69588;SDS011;56792;50.644;17.984;2024-03-06T11:36:27;18.70;;;11.60;;
69588;SDS011;56792;50.644;17.984;2024-03-06T11:39:00;20.80;;;10.90;;
69588;SDS011;56792;50.644;17.984;2024-03-06T11:41:48;16.60;;;9.50;;
69588;SDS011;56792;50.644;17.984;2024-03-06T11:44:21;20.90;;;12.30;;
69588;SDS011;56792;50.644;17.984;2024-03-06T11:46:59;21.40;;;11.10;;
69588;SDS011;56792;50.644;17.984;2024-03-06T11:49:32;21.20;;;11.40;;
69588;SDS011;56792;50.644;17.984;2024-03-06T11:52:07;19.30;;;11.60;;
69588;SDS011;56792;50.644;17.984;2024-03-06T11:54:39;17.20;;;10.00;;
69588;SDS011;56792;50.644;17.984;2024-03-06T11:57:11;16.80;;;9.90;;
69588;SDS011;56792;50.644;17.984;2024-03-06T11:59:44;15.90;;;9.90;;
69588;SDS011;56792;50.644;17.984;2024-03-06T12:02:16;18.00;;;11.00;;
69588;SDS011;56792;50.644;17.984;2024-03-06T12:04:47;16.70;;;10.10;;
69588;SDS011;56792;50.644;17.984;2024-03-06T12:07:21;18.90;;;10.80;;
69588;SDS011;56792;50.644;17.984;2024-03-06T12:09:53;18.10;;;10.80;;
69588;SDS011;56792;50.644;17.984;2024-03-06T12:12:26;18.30;;;10.80;;
69588;SDS011;56792;50.644;17.984;2024-03-06T12:14:59;18.40;;;11.30;;
69588;SDS011;56792;50.644;17.984;2024-03-06T12:17:43;19.00;;;10.90;;
69588;SDS011;56792;50.644;17.984;2024-03-06T12:20:17;20.20;;;11.80;;
69588;SDS011;56792;50.644;17.984;2024-03-06T12:22:51;19.80;;;10.80;;
69588;SDS011;56792;50.644;17.984;2024-03-06T12:25:25;24.60;;;12.90;;
69588;SDS011;56792;50.644;17.984;2024-03-06T12:28:08;22.90;;;12.40;;
69588;SDS011;56792;50.644;17.984;2024-03-06T12:30:42;25.20;;;13.00;;
69588;SDS011;56792;50.644;17.984;2024-03-06T12:33:17;24.00;;;13.00;;
69588;SDS011;56792;50.644;17.984;2024-03-06T12:35:49;22.00;;;12.30;;
69588;SDS011;56792;50.644;17.984;2024-03-06T12:38:32;24.70;;;13.30;;
69588;SDS011;56792;50.644;17.984;2024-03-06T12:41:03;21.70;;;12.00;;
69588;SDS011;56792;50.644;17.984;2024-03-06T12:43:35;25.30;;;12.00;;
69588;SDS011;56792;50.644;17.984;2024-03-06T12:46:07;21.90;;;11.70;;
69588;SDS011;56792;50.644;17.984;2024-03-06T12:48:38;20.60;;;11.60;;
69588;SDS011;56792;50.644;17.984;2024-03-06T12:51:10;19.00;;;11.90;;
69588;SDS011;56792;50.644;17.984;2024-03-06T12:53:41;20.80;;;11.90;;
69588;SDS011;56792;50.644;17.984;2024-03-06T12:56:13;27.60;;;13.60;;
69588;SDS011;56792;50.644;17.984;2024-03-06T12:58:45;22.90;;;12.30;;
69588;SDS011;56792;50.644;17.984;2024-03-06T13:01:17;24.20;;;12.80;;
69588;SDS011;56792;50.644;17.984;2024-03-06T13:03:48;26.20;;;12.80;;
69588;SDS011;56792;50.644;17.984;2024-03-06T13:06:20;22.20;;;12.10;;
69588;SDS011;56792;50.644;17.984;2024-03-06T13:08:51;22.40;;;12.70;;
69588;SDS011;56792;50.644;17.984;2024-03-06T13:11:23;24.40;;;13.70;;
69588;SDS011;56792;50.644;17.984;2024-03-06T13:13:55;22.90;;;12.60;;
69588;SDS011;56792;50.644;17.984;2024-03-06T13:16:26;23.20;;;13.40;;
69588;SDS011;56792;50.644;17.984;2024-03-06T13:18:58;22.90;;;12.20;;
69588;SDS011;56792;50.644;17.984;2024-03-06T13:21:31;21.80;;;12.00;;
69588;SDS011;56792;50.644;17.984;2024-03-06T13:24:03;21.70;;;12.80;;
69588;SDS011;56792;50.644;17.984;2024-03-06T13:26:35;19.80;;;11.80;;
69588;SDS011;56792;50.644;17.984;2024-03-06T13:29:08;25.30;;;14.30;;
69588;SDS011;56792;50.644;17.984;2024-03-06T13:31:40;26.90;;;14.60;;
69588;SDS011;56792;50.644;17.984;2024-03-06T13:34:11;30.50;;;15.50;;
69588;SDS011;56792;50.644;17.984;2024-03-06T13:36:43;27.30;;;14.60;;
69588;SDS011;56792;50.644;17.984;2024-03-06T13:39:15;28.30;;;15.20;;
69588;SDS011;56792;50.644;17.984;2024-03-06T13:41:46;27.90;;;15.10;;
69588;SDS011;56792;50.644;17.984;2024-03-06T13:44:18;28.90;;;15.40;;
69588;SDS011;56792;50.644;17.984;2024-03-06T13:46:49;25.10;;;14.70;;
69588;SDS011;56792;50.644;17.984;2024-03-06T13:49:37;42.70;;;20.30;;
69588;SDS011;56792;50.644;17.984;2024-03-06T13:52:10;45.80;;;21.80;;
69588;SDS011;56792;50.644;17.984;2024-03-06T13:54:43;33.20;;;17.20;;
69588;SDS011;56792;50.644;17.984;2024-03-06T13:57:16;37.20;;;18.30;;
69588;SDS011;56792;50.644;17.984;2024-03-06T13:59:48;37.30;;;19.00;;
69588;SDS011;56792;50.644;17.984;2024-03-06T14:02:20;30.70;;;17.10;;
69588;SDS011;56792;50.644;17.984;2024-03-06T14:04:51;34.70;;;17.90;;
69588;SDS011;56792;50.644;17.984;2024-03-06T14:07:23;33.40;;;17.30;;
69588;SDS011;56792;50.644;17.984;2024-03-06T14:09:55;36.50;;;17.60;;
69588;SDS011;56792;50.644;17.984;2024-03-06T14:12:27;36.40;;;18.80;;
69588;SDS011;56792;50.644;17.984;2024-03-06T14:14:58;35.40;;;17.20;;
69588;SDS011;56792;50.644;17.984;2024-03-06T14:17:30;35.50;;;17.10;;
69588;SDS011;56792;50.644;17.984;2024-03-06T14:20:01;41.90;;;19.60;;
69588;SDS011;56792;50.644;17.984;2024-03-06T14:22:33;30.50;;;16.60;;
69588;SDS011;56792;50.644;17.984;2024-03-06T14:25:06;37.10;;;19.60;;
69588;SDS011;56792;50.644;17.984;2024-03-06T14:27:39;40.30;;;19.90;;
69588;SDS011;56792;50.644;17.984;2024-03-06T14:30:11;39.00;;;19.70;;
69588;SDS011;56792;50.644;17.984;2024-03-06T14:32:43;40.80;;;20.70;;
69588;SDS011;56792;50.644;17.984;2024-03-06T14:35:15;40.90;;;21.40;;
69588;SDS011;56792;50.644;17.984;2024-03-06T14:37:47;40.90;;;20.90;;
69588;SDS011;56792;50.644;17.984;2024-03-06T14:40:19;38.20;;;19.10;;